SCPL weather

Calpulli Airport
Paillaco, Los Ríos Region, Chile

Public forecast

Using degrees Celsius for public forecast. Weather courtesy of forecast.io.

Closest aviation weather report (METAR) to Calpulli Airport

Closest report is Cañal Bajo Carlos - Hott Siebert Airport, 34.2 nm (63.4 km) SSW. Retrieved 2020/02/27 17:00 UTC (4 minutes ago):

SCJO 271700Z 17009KT 9999 SCT025 20/14 Q1019

Closest aviation forecast (TAF) to Calpulli Airport

Closest forecast is Cañal Bajo Carlos - Hott Siebert Airport, 34.2 nm (63.4 km) SSW. Retrieved 2020/02/27 12:00 UTC (5 hours ago):

TAF SCJO 271032Z 2712/2800 19013KT 9999 BKN015 TN10/2712Z TX21/2720Z BECMG 2718/2720 SCT030 BECMG 2722/2724 BKN012